createdAt,value
2019-03-23T00:00:15.879Z,4.81
2019-03-23T00:02:45.113Z,4.86
2019-03-23T00:05:14.869Z,4.91
2019-03-23T00:07:44.106Z,4.90
2019-03-23T00:10:13.379Z,4.85
2019-03-23T00:12:42.896Z,4.77
2019-03-23T00:15:12.841Z,4.79
2019-03-23T00:17:42.040Z,4.82
2019-03-23T00:20:11.245Z,4.81
2019-03-23T00:22:40.468Z,4.87
2019-03-23T00:25:09.847Z,4.82
2019-03-23T00:27:39.074Z,4.78
2019-03-23T00:30:09.511Z,4.99
2019-03-23T00:32:38.758Z,4.98
2019-03-23T00:35:08.088Z,4.91
2019-03-23T00:37:37.398Z,4.81
2019-03-23T00:40:07.325Z,4.68
2019-03-23T00:42:36.826Z,4.71
2019-03-23T00:45:06.798Z,4.67
2019-03-23T00:47:36.015Z,4.64
2019-03-23T00:50:06.615Z,4.60
2019-03-23T00:52:35.824Z,4.46
2019-03-23T00:55:05.949Z,4.24
2019-03-23T00:57:35.156Z,4.10
2019-03-23T01:00:05.231Z,4.01
2019-03-23T01:02:34.456Z,4.12
2019-03-23T01:05:03.739Z,4.05
2019-03-23T01:07:32.977Z,4.17
2019-03-23T01:10:02.253Z,4.16
2019-03-23T01:12:31.480Z,4.21
2019-03-23T01:15:00.710Z,4.12
2019-03-23T01:17:29.911Z,4.19
2019-03-23T01:19:59.136Z,4.07
2019-03-23T01:22:28.348Z,4.05
2019-03-23T01:24:57.574Z,3.96
2019-03-23T01:27:26.795Z,3.91
2019-03-23T01:29:56.050Z,3.92
2019-03-23T01:32:25.263Z,3.90
2019-03-23T01:34:54.472Z,4.02
2019-03-23T01:37:23.981Z,4.08
2019-03-23T01:39:53.197Z,4.06
2019-03-23T01:42:22.435Z,4.05
2019-03-23T01:44:51.636Z,3.94
2019-03-23T01:47:20.877Z,3.89
2019-03-23T01:49:50.074Z,3.74
2019-03-23T01:52:19.281Z,3.56
2019-03-23T01:54:48.527Z,3.52
2019-03-23T01:57:17.730Z,3.59
2019-03-23T01:59:46.940Z,3.64
2019-03-23T02:02:16.248Z,3.83
2019-03-23T02:04:45.474Z,3.80
2019-03-23T02:07:15.017Z,3.72
2019-03-23T02:09:44.244Z,3.76
2019-03-23T02:12:14.053Z,3.85
2019-03-23T02:14:43.245Z,3.72
2019-03-23T02:17:12.779Z,3.54
2019-03-23T02:19:42.406Z,3.45
2019-03-23T02:22:11.713Z,3.38
2019-03-23T02:24:40.951Z,3.29
2019-03-23T02:27:10.156Z,3.45
2019-03-23T02:29:39.351Z,3.34
2019-03-23T02:32:08.591Z,3.33
2019-03-23T02:34:37.786Z,3.20
2019-03-23T02:37:07.031Z,3.18
2019-03-23T02:39:36.234Z,3.18
2019-03-23T02:42:05.543Z,3.20
2019-03-23T02:44:34.770Z,3.31
2019-03-23T02:47:04.001Z,3.37
2019-03-23T02:49:33.549Z,3.36
2019-03-23T02:52:02.776Z,3.47
2019-03-23T02:54:31.969Z,3.55
2019-03-23T02:57:01.284Z,3.41
2019-03-23T02:59:30.478Z,3.48
2019-03-23T03:01:59.674Z,3.32
2019-03-23T03:04:28.905Z,3.41
2019-03-23T03:06:58.122Z,3.50
2019-03-23T03:09:27.343Z,3.41
2019-03-23T03:11:56.566Z,3.21
2019-03-23T03:14:26.068Z,3.27
2019-03-23T03:16:55.278Z,3.39
2019-03-23T03:19:24.502Z,3.51
2019-03-23T03:21:53.700Z,3.57
2019-03-23T03:24:22.898Z,3.73
2019-03-23T03:26:52.158Z,3.72
2019-03-23T03:29:21.354Z,3.64
2019-03-23T03:31:50.572Z,3.43
2019-03-23T03:34:19.811Z,3.40
2019-03-23T03:36:49.088Z,3.29
2019-03-23T03:39:18.555Z,3.22
2019-03-23T03:41:48.074Z,3.07
2019-03-23T03:44:17.316Z,3.10
2019-03-23T03:46:46.508Z,3.07
2019-03-23T03:49:15.704Z,3.33
2019-03-23T03:51:44.934Z,3.19
2019-03-23T03:54:14.132Z,3.09
2019-03-23T03:56:43.337Z,3.22
2019-03-23T03:59:12.558Z,3.13
2019-03-23T04:01:41.825Z,3.08
2019-03-23T04:04:11.054Z,2.95
2019-03-23T04:06:40.273Z,2.92
2019-03-23T04:09:09.484Z,2.79
2019-03-23T04:11:38.705Z,3.06
2019-03-23T04:14:07.905Z,3.13
2019-03-23T04:16:37.116Z,3.21
2019-03-23T04:19:06.332Z,3.54
2019-03-23T04:21:35.559Z,3.83
2019-03-23T04:24:04.804Z,3.75
2019-03-23T04:26:34.000Z,3.49
2019-03-23T04:29:03.232Z,3.42
2019-03-23T04:31:32.432Z,3.15
2019-03-23T04:34:01.654Z,3.07
2019-03-23T04:36:30.875Z,2.86
2019-03-23T04:39:00.080Z,2.80
2019-03-23T04:41:29.386Z,2.74
2019-03-23T04:43:58.586Z,2.75
2019-03-23T04:46:27.810Z,2.60
2019-03-23T04:48:57.747Z,2.51
2019-03-23T04:51:27.297Z,2.56
2019-03-23T04:53:56.513Z,2.52
2019-03-23T04:56:25.733Z,2.45
2019-03-23T04:58:54.969Z,2.71
2019-03-23T05:01:24.165Z,2.66
2019-03-23T05:03:53.365Z,2.66
2019-03-23T05:06:22.606Z,2.76
2019-03-23T05:08:51.817Z,2.88
2019-03-23T05:11:21.018Z,2.88
2019-03-23T05:13:50.248Z,2.82
2019-03-23T05:16:19.757Z,2.78
2019-03-23T05:18:49.032Z,2.86
2019-03-23T05:21:18.344Z,2.91
2019-03-23T05:23:47.612Z,2.85
2019-03-23T05:26:16.866Z,3.13
2019-03-23T05:28:46.302Z,3.33
2019-03-23T05:31:15.499Z,3.30
2019-03-23T05:33:44.850Z,3.15
2019-03-23T05:36:15.343Z,2.98
2019-03-23T05:38:44.990Z,2.99
2019-03-23T05:41:14.333Z,3.04
2019-03-23T05:43:43.550Z,2.91
2019-03-23T05:46:12.731Z,2.98
2019-03-23T05:48:42.289Z,3.04
2019-03-23T05:51:11.493Z,2.95
2019-03-23T05:53:40.687Z,2.92
2019-03-23T05:56:09.914Z,2.91
2019-03-23T05:58:39.462Z,3.08
2019-03-23T06:01:08.662Z,3.12
2019-03-23T06:03:37.894Z,3.41
2019-03-23T06:06:07.174Z,3.61
2019-03-23T06:08:36.398Z,3.73
2019-03-23T06:11:05.656Z,3.84
2019-03-23T06:13:34.856Z,3.76
2019-03-23T06:16:04.052Z,3.77
2019-03-23T06:18:33.277Z,3.99
2019-03-23T06:21:02.474Z,4.17
2019-03-23T06:23:31.671Z,4.09
2019-03-23T06:26:00.895Z,4.28
2019-03-23T06:28:30.105Z,4.32
2019-03-23T06:30:59.310Z,4.39
2019-03-23T06:33:28.541Z,4.48
2019-03-23T06:35:58.041Z,4.58
2019-03-23T06:38:27.241Z,4.77
2019-03-23T06:40:56.526Z,4.95
2019-03-23T06:43:25.684Z,5.08
2019-03-23T06:45:54.880Z,5.27
2019-03-23T06:48:24.117Z,5.49
2019-03-23T06:50:53.324Z,5.66
2019-03-23T06:53:22.560Z,5.70
2019-03-23T06:55:51.767Z,5.89
2019-03-23T06:58:20.995Z,6.21
2019-03-23T07:00:50.350Z,6.51
2019-03-23T07:03:19.553Z,7.00
2019-03-23T07:05:48.777Z,7.19
2019-03-23T07:08:18.016Z,7.10
2019-03-23T07:10:47.244Z,7.08
2019-03-23T07:13:16.452Z,7.22
2019-03-23T07:15:45.683Z,7.22
2019-03-23T07:18:14.885Z,7.22
2019-03-23T07:20:44.091Z,7.37
2019-03-23T07:23:13.323Z,7.48
2019-03-23T07:25:42.550Z,7.21
2019-03-23T07:28:11.830Z,7.24
2019-03-23T07:30:41.038Z,7.48
2019-03-23T07:33:10.271Z,7.43
2019-03-23T07:35:39.494Z,7.28
2019-03-23T07:38:08.716Z,6.97
2019-03-23T07:40:38.224Z,6.86
2019-03-23T07:43:07.522Z,6.87
2019-03-23T07:45:36.732Z,6.89
2019-03-23T07:48:05.949Z,6.91
2019-03-23T07:50:35.194Z,6.95
2019-03-23T07:53:04.755Z,7.03
2019-03-23T07:55:33.961Z,7.12
2019-03-23T07:58:03.188Z,7.28
2019-03-23T08:00:32.401Z,7.31
2019-03-23T08:03:01.616Z,7.30
2019-03-23T08:05:30.854Z,7.35
2019-03-23T08:08:00.100Z,7.53
2019-03-23T08:10:33.493Z,7.48
2019-03-23T08:13:02.806Z,7.62
2019-03-23T08:15:32.123Z,7.59
2019-03-23T08:18:01.428Z,7.51
2019-03-23T08:20:30.640Z,7.66
2019-03-23T08:22:59.845Z,7.75
2019-03-23T08:25:29.080Z,7.71
2019-03-23T08:27:58.835Z,7.60
2019-03-23T08:30:28.076Z,7.79
2019-03-23T08:32:57.298Z,7.98
2019-03-23T08:35:26.895Z,7.92
2019-03-23T08:37:56.132Z,7.65
2019-03-23T08:40:25.343Z,7.73
2019-03-23T08:42:54.549Z,7.89
2019-03-23T08:45:23.782Z,7.79
2019-03-23T08:47:52.986Z,7.46
2019-03-23T08:50:22.189Z,7.56
2019-03-23T08:52:51.422Z,7.62
2019-03-23T08:55:22.025Z,7.74
2019-03-23T08:57:51.321Z,7.77
2019-03-23T09:00:20.548Z,7.68
2019-03-23T09:02:49.751Z,7.80
2019-03-23T09:05:18.961Z,7.62
2019-03-23T09:07:48.219Z,7.61
2019-03-23T09:10:17.451Z,7.61
2019-03-23T09:12:46.691Z,7.51
2019-03-23T09:15:15.995Z,7.66
2019-03-23T09:17:45.199Z,7.66
2019-03-23T09:20:14.518Z,7.52
2019-03-23T09:22:43.723Z,7.46
2019-03-23T09:25:12.922Z,7.47
2019-03-23T09:27:42.164Z,7.70
2019-03-23T09:30:11.714Z,7.97
2019-03-23T09:32:40.923Z,7.78
2019-03-23T09:35:10.248Z,7.62
2019-03-23T09:37:39.449Z,7.71
2019-03-23T09:40:11.150Z,7.65
2019-03-23T09:42:40.363Z,7.52
2019-03-23T09:45:09.932Z,7.47
2019-03-23T09:47:39.148Z,7.44
2019-03-23T09:50:08.967Z,7.47
2019-03-23T09:52:38.267Z,7.49
2019-03-23T09:55:07.931Z,7.54
2019-03-23T09:57:37.238Z,7.52
2019-03-23T10:00:08.128Z,7.59
2019-03-23T10:02:37.467Z,7.66
2019-03-23T10:05:07.477Z,7.61
2019-03-23T10:07:36.680Z,7.54
2019-03-23T10:10:06.496Z,7.34
2019-03-23T10:12:35.747Z,7.39
2019-03-23T10:15:05.804Z,7.35
2019-03-23T10:17:35.033Z,7.30
2019-03-23T10:20:04.833Z,7.51
2019-03-23T10:22:34.036Z,7.87
2019-03-23T10:25:03.268Z,7.74
2019-03-23T10:27:32.474Z,7.29
2019-03-23T10:30:01.698Z,7.29
2019-03-23T10:32:30.916Z,7.51
2019-03-23T10:35:00.441Z,7.39
2019-03-23T10:37:29.723Z,7.59
2019-03-23T10:39:58.953Z,7.41
2019-03-23T10:42:28.167Z,7.61
2019-03-23T10:44:57.372Z,7.47
2019-03-23T10:47:26.681Z,7.75
2019-03-23T10:49:55.894Z,8.03
2019-03-23T10:52:25.103Z,8.12
2019-03-23T10:54:54.344Z,8.58
2019-03-23T10:57:23.538Z,9.16
2019-03-23T10:59:52.771Z,9.44
2019-03-23T11:02:22.057Z,9.37
2019-03-23T11:04:51.265Z,9.46
2019-03-23T11:07:20.926Z,9.98
2019-03-23T11:09:50.134Z,10.33
2019-03-23T11:12:19.358Z,10.11
2019-03-23T11:14:48.599Z,9.67
2019-03-23T11:17:17.807Z,9.90
2019-03-23T11:19:47.047Z,9.88
2019-03-23T11:22:18.642Z,9.55
2019-03-23T11:24:47.849Z,9.63
2019-03-23T11:27:17.089Z,9.96
2019-03-23T11:29:46.308Z,10.11
2019-03-23T11:32:15.529Z,9.86
2019-03-23T11:34:44.766Z,9.76
2019-03-23T11:37:14.001Z,9.80
2019-03-23T11:39:43.184Z,10.08
2019-03-23T11:42:12.415Z,10.34
2019-03-23T11:44:41.949Z,10.99
2019-03-23T11:47:11.157Z,11.43
2019-03-23T11:49:40.688Z,10.91
2019-03-23T11:52:09.886Z,11.72
2019-03-23T11:54:39.123Z,12.00
2019-03-23T11:57:08.672Z,12.27
2019-03-23T11:59:37.889Z,12.45
2019-03-23T12:02:07.131Z,12.08
2019-03-23T12:04:36.349Z,11.55
2019-03-23T12:07:05.550Z,12.49
2019-03-23T12:09:34.793Z,12.47
2019-03-23T12:12:04.522Z,12.24
2019-03-23T12:14:33.756Z,11.87
2019-03-23T12:17:03.992Z,11.73
2019-03-23T12:19:33.281Z,12.21
2019-03-23T12:22:02.708Z,11.80
2019-03-23T12:24:32.227Z,12.52
2019-03-23T12:27:01.798Z,13.06
2019-03-23T12:29:31.011Z,12.65
2019-03-23T12:32:00.511Z,12.52
2019-03-23T12:34:29.754Z,12.11
2019-03-23T12:36:58.964Z,12.56
2019-03-23T12:39:28.610Z,13.01
2019-03-23T12:41:58.199Z,13.33
2019-03-23T12:44:27.767Z,13.62
2019-03-23T12:46:56.977Z,13.92
2019-03-23T12:49:26.223Z,13.60
2019-03-23T12:51:55.542Z,14.29
2019-03-23T12:54:24.772Z,13.37
2019-03-23T12:56:54.003Z,13.07
2019-03-23T12:59:23.215Z,13.27
2019-03-23T13:01:52.447Z,13.25
2019-03-23T13:04:22.019Z,13.14
2019-03-23T13:06:51.224Z,13.02
2019-03-23T13:09:20.432Z,13.30
2019-03-23T13:11:49.656Z,13.19
2019-03-23T13:14:18.890Z,13.33
2019-03-23T13:16:48.123Z,13.37
2019-03-23T13:19:19.494Z,13.81
2019-03-23T13:21:48.737Z,14.11
2019-03-23T13:24:17.932Z,14.81
2019-03-23T13:26:47.139Z,14.94
2019-03-23T13:29:16.371Z,15.03
2019-03-23T13:31:45.578Z,14.82
2019-03-23T13:34:14.785Z,15.40
2019-03-23T13:36:44.028Z,15.68
2019-03-23T13:39:13.251Z,15.04
2019-03-23T13:41:49.078Z,15.65
2019-03-23T13:44:18.351Z,16.89
2019-03-23T13:46:47.594Z,17.60
2019-03-23T13:49:16.800Z,18.98
2019-03-23T13:51:46.043Z,21.15
2019-03-23T13:54:15.267Z,22.67
2019-03-23T13:56:44.481Z,23.95
2019-03-23T13:59:13.720Z,22.00
2019-03-23T14:01:42.932Z,20.44
2019-03-23T14:04:12.463Z,19.36
2019-03-23T14:06:41.699Z,19.18
2019-03-23T14:09:10.898Z,17.84
2019-03-23T14:11:40.119Z,17.49
2019-03-23T14:14:09.374Z,17.94
2019-03-23T14:16:38.584Z,17.64
2019-03-23T14:19:07.776Z,17.71
2019-03-23T14:21:37.019Z,16.46
2019-03-23T14:24:06.314Z,14.94
2019-03-23T14:26:35.517Z,14.18
2019-03-23T14:29:04.755Z,13.81
2019-03-23T14:31:33.987Z,14.10
2019-03-23T14:34:04.039Z,15.15
2019-03-23T14:36:33.282Z,16.06
2019-03-23T14:39:02.499Z,16.57
2019-03-23T14:41:31.702Z,16.22
2019-03-23T14:44:00.927Z,15.26
2019-03-23T14:46:30.131Z,15.14
2019-03-23T14:49:01.593Z,14.89
2019-03-23T14:51:30.303Z,14.29
2019-03-23T14:53:59.511Z,13.79
2019-03-23T14:56:31.776Z,13.93
2019-03-23T14:58:59.666Z,13.93
2019-03-23T15:01:28.899Z,13.79
2019-03-23T15:03:58.111Z,14.19
2019-03-23T15:06:27.445Z,13.70
2019-03-23T15:08:56.678Z,13.21
2019-03-23T15:11:25.885Z,13.29
2019-03-23T15:13:55.123Z,13.41
2019-03-23T15:16:24.330Z,13.05
2019-03-23T15:18:53.815Z,12.85
2019-03-23T15:21:23.048Z,12.73
2019-03-23T15:23:52.254Z,12.53
2019-03-23T15:26:21.463Z,12.70
2019-03-23T15:28:51.314Z,12.95
2019-03-23T15:31:20.531Z,13.09
2019-03-23T15:33:49.731Z,12.98
2019-03-23T15:36:19.058Z,12.62
2019-03-23T15:38:48.607Z,12.50
2019-03-23T15:41:17.827Z,12.37
2019-03-23T15:43:47.058Z,12.38
2019-03-23T15:46:16.260Z,12.41
2019-03-23T15:48:45.823Z,12.27
2019-03-23T15:51:15.093Z,12.24
2019-03-23T15:53:44.628Z,12.14
2019-03-23T15:56:13.863Z,12.08
2019-03-23T15:58:43.084Z,12.07
2019-03-23T16:01:12.289Z,12.03
2019-03-23T16:03:41.525Z,12.03
2019-03-23T16:06:10.750Z,11.87
2019-03-23T16:08:39.951Z,11.90
2019-03-23T16:11:09.156Z,11.84
2019-03-23T16:13:38.386Z,11.81
2019-03-23T16:16:07.628Z,11.73
2019-03-23T16:18:37.122Z,11.73
2019-03-23T16:21:06.334Z,11.68
2019-03-23T16:23:35.538Z,11.69
2019-03-23T16:26:04.840Z,11.74
2019-03-23T16:28:34.045Z,11.73
2019-03-23T16:31:03.255Z,11.77
2019-03-23T16:33:32.483Z,11.68
2019-03-23T16:36:03.537Z,11.54
2019-03-23T16:38:32.678Z,11.54
2019-03-23T16:41:01.879Z,11.54
2019-03-23T16:43:31.113Z,11.54
2019-03-23T16:46:00.327Z,11.52
2019-03-23T16:48:29.535Z,11.44
2019-03-23T16:50:58.752Z,11.46
2019-03-23T16:53:27.955Z,11.42
2019-03-23T16:55:57.191Z,11.39
2019-03-23T16:58:26.406Z,11.35
2019-03-23T17:00:55.608Z,11.34
2019-03-23T17:03:24.825Z,11.30
2019-03-23T17:05:54.325Z,11.27
2019-03-23T17:08:23.561Z,11.25
2019-03-23T17:10:53.171Z,11.17
2019-03-23T17:13:22.388Z,11.19
2019-03-23T17:15:51.619Z,11.21
2019-03-23T17:18:20.882Z,11.22
2019-03-23T17:20:50.088Z,11.20
2019-03-23T17:23:19.302Z,11.13
2019-03-23T17:25:48.540Z,11.11
2019-03-23T17:28:17.751Z,11.07
2019-03-23T17:30:46.958Z,11.03
2019-03-23T17:33:16.485Z,10.96
2019-03-23T17:35:45.697Z,10.89
2019-03-23T17:38:15.245Z,10.83
2019-03-23T17:40:44.537Z,10.75
2019-03-23T17:43:13.742Z,10.70
2019-03-23T17:45:43.622Z,10.67
2019-03-23T17:48:12.823Z,10.65
2019-03-23T17:50:42.032Z,10.64
2019-03-23T17:53:11.259Z,10.60
2019-03-23T17:55:40.572Z,10.62
2019-03-23T17:58:09.785Z,10.63
2019-03-23T18:00:38.998Z,10.66
2019-03-23T18:03:08.232Z,10.66
2019-03-23T18:05:37.442Z,10.65
2019-03-23T18:08:06.874Z,10.65
2019-03-23T18:10:36.109Z,10.65
2019-03-23T18:13:15.917Z,10.63
2019-03-23T18:15:36.686Z,10.64
2019-03-23T18:18:05.999Z,10.63
2019-03-23T18:20:35.281Z,10.60
2019-03-23T18:23:04.492Z,10.63
2019-03-23T18:25:33.741Z,10.63
2019-03-23T18:28:02.944Z,10.62
2019-03-23T18:30:38.324Z,10.65
2019-03-23T18:33:07.904Z,10.63
2019-03-23T18:35:37.288Z,10.61
2019-03-23T18:38:06.678Z,10.66
2019-03-23T18:40:36.387Z,10.64
2019-03-23T18:43:05.924Z,10.66
2019-03-23T18:45:35.902Z,10.66
2019-03-23T18:48:05.697Z,10.61
2019-03-23T18:50:34.904Z,10.47
2019-03-23T18:53:04.549Z,10.50
2019-03-23T18:55:33.767Z,10.40
2019-03-23T18:58:02.985Z,10.39
2019-03-23T19:00:43.003Z,10.38
2019-03-23T19:03:12.705Z,10.37
2019-03-23T19:05:42.200Z,10.30
2019-03-23T19:08:12.008Z,10.29
2019-03-23T19:10:41.375Z,10.24
2019-03-23T19:13:10.650Z,10.22
2019-03-23T19:15:39.883Z,10.19
2019-03-23T19:18:09.142Z,10.21
2019-03-23T19:20:38.419Z,10.19
2019-03-23T19:23:07.775Z,10.17
2019-03-23T19:25:37.066Z,10.17
2019-03-23T19:28:06.927Z,10.14
2019-03-23T19:30:36.357Z,10.10
2019-03-23T19:33:06.353Z,10.03
2019-03-23T19:35:35.679Z,9.96
2019-03-23T19:38:05.176Z,9.90
2019-03-23T19:40:34.394Z,9.78
2019-03-23T19:43:03.602Z,9.78
2019-03-23T19:45:32.809Z,9.72
2019-03-23T19:48:02.047Z,9.63
2019-03-23T19:50:31.250Z,9.61
2019-03-23T19:53:00.451Z,9.60
2019-03-23T19:55:29.986Z,9.60
2019-03-23T19:57:59.223Z,9.59
2019-03-23T20:00:28.421Z,9.58
2019-03-23T20:02:57.615Z,9.44
2019-03-23T20:05:26.834Z,9.42
2019-03-23T20:07:56.053Z,9.52
2019-03-23T20:10:25.280Z,9.53
2019-03-23T20:12:54.487Z,9.62
2019-03-23T20:15:23.774Z,9.55
2019-03-23T20:17:53.027Z,9.47
2019-03-23T20:20:22.401Z,9.52
2019-03-23T20:22:51.598Z,9.62
2019-03-23T20:25:20.807Z,9.56
2019-03-23T20:27:50.001Z,9.58
2019-03-23T20:30:19.621Z,9.49
2019-03-23T20:32:48.847Z,9.44
2019-03-23T20:35:18.057Z,9.46
2019-03-23T20:37:47.638Z,9.51
2019-03-23T20:40:16.925Z,9.51
2019-03-23T20:42:46.134Z,9.61
2019-03-23T20:45:26.394Z,9.57
2019-03-23T20:47:56.456Z,9.47
2019-03-23T20:50:25.604Z,9.59
2019-03-23T20:52:55.917Z,9.57
2019-03-23T20:55:27.082Z,9.52
2019-03-23T20:57:57.386Z,9.48
2019-03-23T21:00:26.679Z,9.40
2019-03-23T21:02:55.986Z,9.44
2019-03-23T21:05:33.069Z,9.48
2019-03-23T21:07:56.139Z,9.51
2019-03-23T21:10:25.421Z,9.51
2019-03-23T21:12:54.630Z,9.44
2019-03-23T21:15:23.861Z,9.46
2019-03-23T21:17:53.447Z,9.42
2019-03-23T21:20:22.685Z,9.39
2019-03-23T21:22:51.918Z,9.37
2019-03-23T21:25:21.198Z,9.30
2019-03-23T21:27:50.401Z,9.17
2019-03-23T21:30:21.477Z,9.24
2019-03-23T21:32:51.050Z,9.20
2019-03-23T21:35:20.587Z,9.22
2019-03-23T21:37:49.814Z,9.19
2019-03-23T21:40:19.062Z,9.10
2019-03-23T21:42:48.303Z,9.12
2019-03-23T21:45:17.581Z,9.08
2019-03-23T21:47:46.786Z,9.06
2019-03-23T21:50:16.095Z,9.03
2019-03-23T21:52:45.297Z,9.01
2019-03-23T21:55:15.536Z,8.98
2019-03-23T21:57:45.021Z,8.96
2019-03-23T22:00:19.688Z,8.91
2019-03-23T22:02:48.904Z,8.85
2019-03-23T22:05:18.105Z,8.71
2019-03-23T22:07:47.327Z,8.67
2019-03-23T22:10:16.641Z,8.77
2019-03-23T22:12:45.852Z,8.77
2019-03-23T22:15:15.633Z,8.69
2019-03-23T22:17:45.478Z,8.59
2019-03-23T22:20:15.079Z,8.62
2019-03-23T22:22:44.275Z,8.63
2019-03-23T22:25:13.574Z,8.55
2019-03-23T22:27:42.802Z,8.49
2019-03-23T22:30:13.729Z,8.45
2019-03-23T22:32:43.095Z,8.44
2019-03-23T22:35:12.486Z,8.39
2019-03-23T22:37:42.039Z,8.28
2019-03-23T22:40:12.400Z,8.20
2019-03-23T22:42:41.636Z,8.20
2019-03-23T22:45:11.403Z,8.11
2019-03-23T22:47:40.593Z,7.98
2019-03-23T22:50:10.803Z,7.96
2019-03-23T22:52:40.002Z,7.89
2019-03-23T22:55:09.660Z,7.72
2019-03-23T22:57:38.879Z,7.57
2019-03-23T23:00:08.776Z,7.46
2019-03-23T23:02:38.080Z,7.34
2019-03-23T23:05:08.405Z,7.35
2019-03-23T23:07:37.609Z,7.27
2019-03-23T23:10:07.220Z,7.23
2019-03-23T23:12:36.748Z,7.21
2019-03-23T23:15:06.689Z,7.10
2019-03-23T23:17:35.911Z,7.06
2019-03-23T23:20:05.855Z,6.99
2019-03-23T23:22:35.044Z,7.05
2019-03-23T23:25:05.152Z,6.98
2019-03-23T23:27:34.365Z,6.84
2019-03-23T23:30:03.998Z,6.72
2019-03-23T23:32:33.208Z,6.63
2019-03-23T23:35:02.396Z,6.54
2019-03-23T23:37:31.619Z,6.47
2019-03-23T23:40:00.816Z,6.45
2019-03-23T23:42:30.008Z,6.46
2019-03-23T23:44:59.261Z,6.46
2019-03-23T23:47:28.455Z,6.38
2019-03-23T23:49:57.649Z,6.33
2019-03-23T23:52:26.876Z,6.28
2019-03-23T23:54:56.073Z,6.21
2019-03-23T23:57:25.578Z,6.08
2019-03-23T23:59:54.799Z,5.94
